sensor_id;sensor_type;location;lat;lon;timestamp;temperature;humidity
76577;DHT22;65441;44.748;37.600;2024-02-04T00:00:14;5.87;91.70
76577;DHT22;65441;44.748;37.600;2024-02-04T00:02:44;5.84;91.66
76577;DHT22;65441;44.748;37.600;2024-02-04T00:05:12;5.82;91.26
76577;DHT22;65441;44.748;37.600;2024-02-04T00:07:40;5.89;91.60
76577;DHT22;65441;44.748;37.600;2024-02-04T00:10:09;5.87;91.32
76577;DHT22;65441;44.748;37.600;2024-02-04T00:12:37;5.93;91.87
76577;DHT22;65441;44.748;37.600;2024-02-04T00:15:07;5.95;91.98
76577;DHT22;65441;44.748;37.600;2024-02-04T00:17:36;5.96;92.24
76577;DHT22;65441;44.748;37.600;2024-02-04T00:20:06;5.94;92.68
76577;DHT22;65441;44.748;37.600;2024-02-04T00:22:34;5.93;91.43
76577;DHT22;65441;44.748;37.600;2024-02-04T00:25:02;5.93;90.79
76577;DHT22;65441;44.748;37.600;2024-02-04T00:27:32;5.96;90.28
76577;DHT22;65441;44.748;37.600;2024-02-04T00:30:00;5.95;90.81
76577;DHT22;65441;44.748;37.600;2024-02-04T00:32:28;5.98;91.33
76577;DHT22;65441;44.748;37.600;2024-02-04T00:34:58;5.98;91.79
76577;DHT22;65441;44.748;37.600;2024-02-04T00:37:26;5.94;90.61
76577;DHT22;65441;44.748;37.600;2024-02-04T00:39:54;5.96;90.86
76577;DHT22;65441;44.748;37.600;2024-02-04T00:42:22;5.92;90.73
76577;DHT22;65441;44.748;37.600;2024-02-04T00:44:50;5.92;89.57
76577;DHT22;65441;44.748;37.600;2024-02-04T00:47:18;5.91;90.28
76577;DHT22;65441;44.748;37.600;2024-02-04T00:49:46;5.91;89.68
76577;DHT22;65441;44.748;37.600;2024-02-04T00:52:16;5.94;90.34
76577;DHT22;65441;44.748;37.600;2024-02-04T00:54:44;5.95;90.82
76577;DHT22;65441;44.748;37.600;2024-02-04T00:57:12;5.94;91.27
76577;DHT22;65441;44.748;37.600;2024-02-04T00:59:41;5.98;90.63
76577;DHT22;65441;44.748;37.600;2024-02-04T01:02:09;6.00;89.27
76577;DHT22;65441;44.748;37.600;2024-02-04T01:04:37;6.00;90.50
76577;DHT22;65441;44.748;37.600;2024-02-04T01:07:05;5.99;90.75
76577;DHT22;65441;44.748;37.600;2024-02-04T01:09:35;6.04;91.43
76577;DHT22;65441;44.748;37.600;2024-02-04T01:12:04;6.08;91.53
76577;DHT22;65441;44.748;37.600;2024-02-04T01:14:32;6.10;90.95
76577;DHT22;65441;44.748;37.600;2024-02-04T01:17:00;6.12;91.33
76577;DHT22;65441;44.748;37.600;2024-02-04T01:19:28;6.12;90.96
76577;DHT22;65441;44.748;37.600;2024-02-04T01:21:56;6.16;91.47
76577;DHT22;65441;44.748;37.600;2024-02-04T01:24:25;6.17;91.38
76577;DHT22;65441;44.748;37.600;2024-02-04T01:26:55;6.20;91.45
76577;DHT22;65441;44.748;37.600;2024-02-04T01:29:23;6.21;91.05
76577;DHT22;65441;44.748;37.600;2024-02-04T01:31:51;6.24;91.40
76577;DHT22;65441;44.748;37.600;2024-02-04T01:34:19;6.28;90.93
76577;DHT22;65441;44.748;37.600;2024-02-04T01:36:47;6.34;91.32
76577;DHT22;65441;44.748;37.600;2024-02-04T01:39:15;6.30;91.76
76577;DHT22;65441;44.748;37.600;2024-02-04T01:41:43;6.36;89.98
76577;DHT22;65441;44.748;37.600;2024-02-04T01:44:13;6.41;89.45
76577;DHT22;65441;44.748;37.600;2024-02-04T01:46:43;6.43;89.37
76577;DHT22;65441;44.748;37.600;2024-02-04T01:49:11;6.44;89.45
76577;DHT22;65441;44.748;37.600;2024-02-04T01:51:40;6.45;88.12
76577;DHT22;65441;44.748;37.600;2024-02-04T01:54:08;6.49;88.33
76577;DHT22;65441;44.748;37.600;2024-02-04T01:56:36;6.46;88.15
76577;DHT22;65441;44.748;37.600;2024-02-04T01:59:05;6.45;88.39
76577;DHT22;65441;44.748;37.600;2024-02-04T02:01:35;6.42;89.21
76577;DHT22;65441;44.748;37.600;2024-02-04T02:04:03;6.44;89.10
76577;DHT22;65441;44.748;37.600;2024-02-04T02:06:33;6.44;89.07
76577;DHT22;65441;44.748;37.600;2024-02-04T02:09:07;6.38;88.34
76577;DHT22;65441;44.748;37.600;2024-02-04T02:11:40;6.37;88.32
76577;DHT22;65441;44.748;37.600;2024-02-04T02:14:13;6.37;87.78
76577;DHT22;65441;44.748;37.600;2024-02-04T02:16:44;6.35;89.86
76577;DHT22;65441;44.748;37.600;2024-02-04T02:19:26;6.35;89.28
76577;DHT22;65441;44.748;37.600;2024-02-04T02:22:04;6.39;88.69
76577;DHT22;65441;44.748;37.600;2024-02-04T02:24:38;6.44;87.54
76577;DHT22;65441;44.748;37.600;2024-02-04T02:27:07;6.48;87.73
76577;DHT22;65441;44.748;37.600;2024-02-04T02:29:36;6.53;87.72
76577;DHT22;65441;44.748;37.600;2024-02-04T02:32:04;6.51;87.47
76577;DHT22;65441;44.748;37.600;2024-02-04T02:34:33;6.53;87.48
76577;DHT22;65441;44.748;37.600;2024-02-04T02:37:06;6.52;87.48
76577;DHT22;65441;44.748;37.600;2024-02-04T02:39:42;6.51;87.72
76577;DHT22;65441;44.748;37.600;2024-02-04T02:42:13;6.56;87.49
76577;DHT22;65441;44.748;37.600;2024-02-04T02:44:44;6.60;88.09
76577;DHT22;65441;44.748;37.600;2024-02-04T02:47:13;6.58;88.06
76577;DHT22;65441;44.748;37.600;2024-02-04T02:49:42;6.56;88.63
76577;DHT22;65441;44.748;37.600;2024-02-04T02:52:11;6.55;88.45
76577;DHT22;65441;44.748;37.600;2024-02-04T02:54:40;6.57;87.09
76577;DHT22;65441;44.748;37.600;2024-02-04T02:57:08;6.60;88.45
76577;DHT22;65441;44.748;37.600;2024-02-04T02:59:36;6.60;88.37
76577;DHT22;65441;44.748;37.600;2024-02-04T03:02:05;6.61;88.64
76577;DHT22;65441;44.748;37.600;2024-02-04T03:04:33;6.61;89.60
76577;DHT22;65441;44.748;37.600;2024-02-04T03:07:01;6.60;89.25
76577;DHT22;65441;44.748;37.600;2024-02-04T03:09:29;6.59;89.66
76577;DHT22;65441;44.748;37.600;2024-02-04T03:11:59;6.59;89.52
76577;DHT22;65441;44.748;37.600;2024-02-04T03:14:27;6.57;89.66
76577;DHT22;65441;44.748;37.600;2024-02-04T03:16:55;6.60;89.57
76577;DHT22;65441;44.748;37.600;2024-02-04T03:19:23;6.61;90.26
76577;DHT22;65441;44.748;37.600;2024-02-04T03:21:51;6.65;90.68
76577;DHT22;65441;44.748;37.600;2024-02-04T03:24:19;6.67;91.24
76577;DHT22;65441;44.748;37.600;2024-02-04T03:26:47;6.69;90.23
76577;DHT22;65441;44.748;37.600;2024-02-04T03:29:17;6.69;90.82
76577;DHT22;65441;44.748;37.600;2024-02-04T03:31:46;6.69;90.91
76577;DHT22;65441;44.748;37.600;2024-02-04T03:34:15;6.70;90.83
76577;DHT22;65441;44.748;37.600;2024-02-04T03:36:43;6.70;90.82
76577;DHT22;65441;44.748;37.600;2024-02-04T03:39:11;6.71;91.45
76577;DHT22;65441;44.748;37.600;2024-02-04T03:41:39;6.76;90.47
76577;DHT22;65441;44.748;37.600;2024-02-04T03:44:07;6.80;90.86
76577;DHT22;65441;44.748;37.600;2024-02-04T03:46:37;6.81;90.78
76577;DHT22;65441;44.748;37.600;2024-02-04T03:49:07;6.86;89.60
76577;DHT22;65441;44.748;37.600;2024-02-04T03:51:35;6.88;90.08
76577;DHT22;65441;44.748;37.600;2024-02-04T03:54:03;6.88;90.48
76577;DHT22;65441;44.748;37.600;2024-02-04T03:56:31;6.89;90.42
76577;DHT22;65441;44.748;37.600;2024-02-04T03:59:00;6.89;90.21
76577;DHT22;65441;44.748;37.600;2024-02-04T04:01:29;6.95;89.92
76577;DHT22;65441;44.748;37.600;2024-02-04T04:03:58;6.97;90.18
76577;DHT22;65441;44.748;37.600;2024-02-04T04:06:26;6.99;90.51
76577;DHT22;65441;44.748;37.600;2024-02-04T04:08:54;7.05;90.32
76577;DHT22;65441;44.748;37.600;2024-02-04T04:11:25;7.09;90.34
76577;DHT22;65441;44.748;37.600;2024-02-04T04:13:53;7.11;89.47
76577;DHT22;65441;44.748;37.600;2024-02-04T04:16:21;7.15;89.57
76577;DHT22;65441;44.748;37.600;2024-02-04T04:18:50;7.17;89.89
76577;DHT22;65441;44.748;37.600;2024-02-04T04:21:19;7.20;89.93
76577;DHT22;65441;44.748;37.600;2024-02-04T04:23:47;7.19;89.99
76577;DHT22;65441;44.748;37.600;2024-02-04T04:26:16;7.22;90.28
76577;DHT22;65441;44.748;37.600;2024-02-04T04:28:44;7.22;90.67
76577;DHT22;65441;44.748;37.600;2024-02-04T04:31:12;7.26;90.12
76577;DHT22;65441;44.748;37.600;2024-02-04T04:33:40;7.27;90.65
76577;DHT22;65441;44.748;37.600;2024-02-04T04:36:08;7.25;90.96
76577;DHT22;65441;44.748;37.600;2024-02-04T04:38:38;7.27;91.22
76577;DHT22;65441;44.748;37.600;2024-02-04T04:41:10;7.28;91.72
76577;DHT22;65441;44.748;37.600;2024-02-04T04:43:38;7.30;91.52
76577;DHT22;65441;44.748;37.600;2024-02-04T04:46:06;7.32;91.58
76577;DHT22;65441;44.748;37.600;2024-02-04T04:48:34;7.35;90.86
76577;DHT22;65441;44.748;37.600;2024-02-04T04:51:02;7.37;91.15
76577;DHT22;65441;44.748;37.600;2024-02-04T04:53:31;7.42;90.93
76577;DHT22;65441;44.748;37.600;2024-02-04T04:56:02;7.41;91.17
76577;DHT22;65441;44.748;37.600;2024-02-04T04:58:30;7.44;91.19
76577;DHT22;65441;44.748;37.600;2024-02-04T05:00:58;7.48;91.04
76577;DHT22;65441;44.748;37.600;2024-02-04T05:03:27;7.50;90.78
76577;DHT22;65441;44.748;37.600;2024-02-04T05:05:55;7.54;90.93
76577;DHT22;65441;44.748;37.600;2024-02-04T05:08:23;7.54;90.05
76577;DHT22;65441;44.748;37.600;2024-02-04T05:10:51;7.59;89.94
76577;DHT22;65441;44.748;37.600;2024-02-04T05:13:21;7.61;90.30
76577;DHT22;65441;44.748;37.600;2024-02-04T05:15:49;7.59;90.72
76577;DHT22;65441;44.748;37.600;2024-02-04T05:18:17;7.62;90.95
76577;DHT22;65441;44.748;37.600;2024-02-04T05:20:45;7.61;90.28
76577;DHT22;65441;44.748;37.600;2024-02-04T05:23:21;7.62;90.52
76577;DHT22;65441;44.748;37.600;2024-02-04T05:26:09;7.63;90.21
76577;DHT22;65441;44.748;37.600;2024-02-04T05:28:39;7.63;90.45
76577;DHT22;65441;44.748;37.600;2024-02-04T05:31:07;7.65;90.49
76577;DHT22;65441;44.748;37.600;2024-02-04T05:33:35;7.65;90.53
76577;DHT22;65441;44.748;37.600;2024-02-04T05:36:04;7.69;90.05
76577;DHT22;65441;44.748;37.600;2024-02-04T05:38:32;7.75;89.39
76577;DHT22;65441;44.748;37.600;2024-02-04T05:41:00;7.74;89.74
76577;DHT22;65441;44.748;37.600;2024-02-04T05:43:28;7.74;90.08
76577;DHT22;65441;44.748;37.600;2024-02-04T05:45:58;7.73;90.60
76577;DHT22;65441;44.748;37.600;2024-02-04T05:48:26;7.74;90.23
76577;DHT22;65441;44.748;37.600;2024-02-04T05:50:55;7.73;90.86
76577;DHT22;65441;44.748;37.600;2024-02-04T05:53:23;7.70;91.43
76577;DHT22;65441;44.748;37.600;2024-02-04T05:55:51;7.70;91.63
76577;DHT22;65441;44.748;37.600;2024-02-04T05:58:19;7.72;91.34
76577;DHT22;65441;44.748;37.600;2024-02-04T06:00:47;7.75;91.22
76577;DHT22;65441;44.748;37.600;2024-02-04T06:03:17;7.79;91.42
76577;DHT22;65441;44.748;37.600;2024-02-04T06:05:45;7.76;91.68
76577;DHT22;65441;44.748;37.600;2024-02-04T06:08:13;7.72;92.37
76577;DHT22;65441;44.748;37.600;2024-02-04T06:10:41;7.76;91.60
76577;DHT22;65441;44.748;37.600;2024-02-04T06:13:13;7.77;91.80
76577;DHT22;65441;44.748;37.600;2024-02-04T06:15:41;7.76;90.90
76577;DHT22;65441;44.748;37.600;2024-02-04T06:18:09;7.82;89.94
76577;DHT22;65441;44.748;37.600;2024-02-04T06:20:39;7.84;90.04
76577;DHT22;65441;44.748;37.600;2024-02-04T06:23:07;7.91;89.94
76577;DHT22;65441;44.748;37.600;2024-02-04T06:25:35;7.93;90.42
76577;DHT22;65441;44.748;37.600;2024-02-04T06:28:04;7.94;91.29
76577;DHT22;65441;44.748;37.600;2024-02-04T06:30:33;7.92;91.56
76577;DHT22;65441;44.748;37.600;2024-02-04T06:33:01;7.90;91.82
76577;DHT22;65441;44.748;37.600;2024-02-04T06:35:30;7.93;91.62
76577;DHT22;65441;44.748;37.600;2024-02-04T06:37:59;7.99;90.98
76577;DHT22;65441;44.748;37.600;2024-02-04T06:40:27;8.02;90.83
76577;DHT22;65441;44.748;37.600;2024-02-04T06:42:55;8.12;90.44
76577;DHT22;65441;44.748;37.600;2024-02-04T06:45:24;8.14;91.26
76577;DHT22;65441;44.748;37.600;2024-02-04T06:47:55;8.11;91.53
76577;DHT22;65441;44.748;37.600;2024-02-04T06:50:24;8.15;90.95
76577;DHT22;65441;44.748;37.600;2024-02-04T06:52:52;8.17;90.55
76577;DHT22;65441;44.748;37.600;2024-02-04T06:55:21;8.20;91.39
76577;DHT22;65441;44.748;37.600;2024-02-04T06:57:49;8.20;91.18
76577;DHT22;65441;44.748;37.600;2024-02-04T07:00:18;8.19;91.89
76577;DHT22;65441;44.748;37.600;2024-02-04T07:02:47;8.20;91.27
76577;DHT22;65441;44.748;37.600;2024-02-04T07:05:16;8.24;91.27
76577;DHT22;65441;44.748;37.600;2024-02-04T07:07:44;8.28;91.82
76577;DHT22;65441;44.748;37.600;2024-02-04T07:10:12;8.24;91.64
76577;DHT22;65441;44.748;37.600;2024-02-04T07:12:42;8.27;90.69
76577;DHT22;65441;44.748;37.600;2024-02-04T07:15:10;8.30;90.21
76577;DHT22;65441;44.748;37.600;2024-02-04T07:17:38;8.34;89.31
76577;DHT22;65441;44.748;37.600;2024-02-04T07:20:07;8.39;89.45
76577;DHT22;65441;44.748;37.600;2024-02-04T07:22:36;8.28;91.18
76577;DHT22;65441;44.748;37.600;2024-02-04T07:25:04;8.31;90.17
76577;DHT22;65441;44.748;37.600;2024-02-04T07:27:33;8.15;87.61
76577;DHT22;65441;44.748;37.600;2024-02-04T07:30:03;7.93;85.26
76577;DHT22;65441;44.748;37.600;2024-02-04T07:32:31;7.89;85.00
76577;DHT22;65441;44.748;37.600;2024-02-04T07:35:01;7.89;86.97
76577;DHT22;65441;44.748;37.600;2024-02-04T07:37:29;7.86;86.80
76577;DHT22;65441;44.748;37.600;2024-02-04T07:39:57;7.93;86.89
76577;DHT22;65441;44.748;37.600;2024-02-04T07:42:25;7.98;87.06
76577;DHT22;65441;44.748;37.600;2024-02-04T07:44:53;8.02;85.37
76577;DHT22;65441;44.748;37.600;2024-02-04T07:47:25;8.05;85.88
76577;DHT22;65441;44.748;37.600;2024-02-04T07:49:53;8.03;85.79
76577;DHT22;65441;44.748;37.600;2024-02-04T07:52:22;8.07;86.44
76577;DHT22;65441;44.748;37.600;2024-02-04T07:54:50;8.08;87.41
76577;DHT22;65441;44.748;37.600;2024-02-04T07:57:18;8.09;87.70
76577;DHT22;65441;44.748;37.600;2024-02-04T07:59:47;8.14;88.99
76577;DHT22;65441;44.748;37.600;2024-02-04T08:02:17;8.31;89.36
76577;DHT22;65441;44.748;37.600;2024-02-04T08:04:46;8.34;88.36
76577;DHT22;65441;44.748;37.600;2024-02-04T08:07:14;8.33;88.79
76577;DHT22;65441;44.748;37.600;2024-02-04T08:09:46;8.43;89.38
76577;DHT22;65441;44.748;37.600;2024-02-04T08:12:17;8.52;89.86
76577;DHT22;65441;44.748;37.600;2024-02-04T08:14:45;8.59;90.23
76577;DHT22;65441;44.748;37.600;2024-02-04T08:17:13;8.66;90.50
76577;DHT22;65441;44.748;37.600;2024-02-04T08:19:41;8.75;89.77
76577;DHT22;65441;44.748;37.600;2024-02-04T08:22:11;8.76;89.62
76577;DHT22;65441;44.748;37.600;2024-02-04T08:24:39;8.79;89.18
76577;DHT22;65441;44.748;37.600;2024-02-04T08:27:07;8.81;86.67
76577;DHT22;65441;44.748;37.600;2024-02-04T08:29:35;8.80;86.83
76577;DHT22;65441;44.748;37.600;2024-02-04T08:32:04;8.89;88.25
76577;DHT22;65441;44.748;37.600;2024-02-04T08:34:34;8.92;88.08
76577;DHT22;65441;44.748;37.600;2024-02-04T08:37:03;8.89;86.95
76577;DHT22;65441;44.748;37.600;2024-02-04T08:39:32;8.87;86.15
76577;DHT22;65441;44.748;37.600;2024-02-04T08:42:00;8.87;85.19
76577;DHT22;65441;44.748;37.600;2024-02-04T08:44:29;8.88;85.64
76577;DHT22;65441;44.748;37.600;2024-02-04T08:46:57;9.03;86.92
76577;DHT22;65441;44.748;37.600;2024-02-04T08:49:25;9.47;86.77
76577;DHT22;65441;44.748;37.600;2024-02-04T08:51:53;9.47;84.33
76577;DHT22;65441;44.748;37.600;2024-02-04T08:54:21;9.60;86.88
76577;DHT22;65441;44.748;37.600;2024-02-04T08:56:51;9.51;85.01
76577;DHT22;65441;44.748;37.600;2024-02-04T08:59:19;9.66;84.29
76577;DHT22;65441;44.748;37.600;2024-02-04T09:01:47;9.49;82.84
76577;DHT22;65441;44.748;37.600;2024-02-04T09:04:16;9.35;82.27
76577;DHT22;65441;44.748;37.600;2024-02-04T09:06:46;9.25;83.70
76577;DHT22;65441;44.748;37.600;2024-02-04T09:09:15;9.29;84.31
76577;DHT22;65441;44.748;37.600;2024-02-04T09:11:43;9.35;83.65
76577;DHT22;65441;44.748;37.600;2024-02-04T09:14:13;9.34;84.29
76577;DHT22;65441;44.748;37.600;2024-02-04T09:16:41;9.33;84.07
76577;DHT22;65441;44.748;37.600;2024-02-04T09:19:09;9.23;84.99
76577;DHT22;65441;44.748;37.600;2024-02-04T09:21:37;9.19;84.35
76577;DHT22;65441;44.748;37.600;2024-02-04T09:24:06;9.14;85.58
76577;DHT22;65441;44.748;37.600;2024-02-04T09:26:34;9.14;85.16
76577;DHT22;65441;44.748;37.600;2024-02-04T09:29:02;9.14;85.01
76577;DHT22;65441;44.748;37.600;2024-02-04T09:31:32;9.11;84.99
76577;DHT22;65441;44.748;37.600;2024-02-04T09:34:10;9.16;85.24
76577;DHT22;65441;44.748;37.600;2024-02-04T09:36:39;9.19;85.48
76577;DHT22;65441;44.748;37.600;2024-02-04T09:39:07;9.24;85.28
76577;DHT22;65441;44.748;37.600;2024-02-04T09:41:35;9.23;84.01
76577;DHT22;65441;44.748;37.600;2024-02-04T09:44:04;9.30;84.61
76577;DHT22;65441;44.748;37.600;2024-02-04T09:46:35;9.29;85.52
76577;DHT22;65441;44.748;37.600;2024-02-04T09:49:03;9.21;85.32
76577;DHT22;65441;44.748;37.600;2024-02-04T09:51:33;9.18;84.96
76577;DHT22;65441;44.748;37.600;2024-02-04T09:54:04;9.14;85.06
76577;DHT22;65441;44.748;37.600;2024-02-04T09:56:34;9.11;85.48
76577;DHT22;65441;44.748;37.600;2024-02-04T09:59:06;9.11;84.98
76577;DHT22;65441;44.748;37.600;2024-02-04T10:01:36;9.12;83.66
76577;DHT22;65441;44.748;37.600;2024-02-04T10:04:05;9.11;84.48
76577;DHT22;65441;44.748;37.600;2024-02-04T10:06:33;9.09;85.12
76577;DHT22;65441;44.748;37.600;2024-02-04T10:09:01;9.09;85.51
76577;DHT22;65441;44.748;37.600;2024-02-04T10:11:30;9.07;84.56
76577;DHT22;65441;44.748;37.600;2024-02-04T10:13:58;9.11;85.27
76577;DHT22;65441;44.748;37.600;2024-02-04T10:16:27;9.17;84.45
76577;DHT22;65441;44.748;37.600;2024-02-04T10:18:57;9.20;84.37
76577;DHT22;65441;44.748;37.600;2024-02-04T10:21:26;9.20;84.69
76577;DHT22;65441;44.748;37.600;2024-02-04T10:23:54;9.17;85.61
76577;DHT22;65441;44.748;37.600;2024-02-04T10:26:28;9.14;85.61
76577;DHT22;65441;44.748;37.600;2024-02-04T10:28:58;9.15;85.97
76577;DHT22;65441;44.748;37.600;2024-02-04T10:31:26;9.15;84.39
76577;DHT22;65441;44.748;37.600;2024-02-04T10:33:54;9.15;84.29
76577;DHT22;65441;44.748;37.600;2024-02-04T10:36:24;9.15;84.39
76577;DHT22;65441;44.748;37.600;2024-02-04T10:38:52;9.11;85.50
76577;DHT22;65441;44.748;37.600;2024-02-04T10:41:21;9.12;86.41
76577;DHT22;65441;44.748;37.600;2024-02-04T10:43:50;9.07;86.12
76577;DHT22;65441;44.748;37.600;2024-02-04T10:46:22;9.05;85.18
76577;DHT22;65441;44.748;37.600;2024-02-04T10:48:55;9.04;86.03
76577;DHT22;65441;44.748;37.600;2024-02-04T10:51:26;9.06;85.76
76577;DHT22;65441;44.748;37.600;2024-02-04T10:53:55;9.09;86.72
76577;DHT22;65441;44.748;37.600;2024-02-04T10:56:28;9.09;86.22
76577;DHT22;65441;44.748;37.600;2024-02-04T10:58:58;9.17;85.96
76577;DHT22;65441;44.748;37.600;2024-02-04T11:01:30;9.20;85.81
76577;DHT22;65441;44.748;37.600;2024-02-04T11:03:58;9.21;84.77
76577;DHT22;65441;44.748;37.600;2024-02-04T11:06:29;9.19;84.87
76577;DHT22;65441;44.748;37.600;2024-02-04T11:08:58;9.17;85.33
76577;DHT22;65441;44.748;37.600;2024-02-04T11:11:27;9.15;85.89
76577;DHT22;65441;44.748;37.600;2024-02-04T11:13:58;9.16;85.60
76577;DHT22;65441;44.748;37.600;2024-02-04T11:16:39;9.12;86.12
76577;DHT22;65441;44.748;37.600;2024-02-04T11:19:20;9.11;86.39
76577;DHT22;65441;44.748;37.600;2024-02-04T11:22:11;9.09;86.25
76577;DHT22;65441;44.748;37.600;2024-02-04T11:24:54;9.09;86.16
76577;DHT22;65441;44.748;37.600;2024-02-04T11:27:27;9.10;86.03
76577;DHT22;65441;44.748;37.600;2024-02-04T11:29:56;9.14;85.39
76577;DHT22;65441;44.748;37.600;2024-02-04T11:32:24;9.17;85.20
76577;DHT22;65441;44.748;37.600;2024-02-04T11:34:53;9.14;85.23
76577;DHT22;65441;44.748;37.600;2024-02-04T11:37:28;9.16;85.13
76577;DHT22;65441;44.748;37.600;2024-02-04T11:40:00;9.14;84.68
76577;DHT22;65441;44.748;37.600;2024-02-04T11:42:32;9.14;85.04
76577;DHT22;65441;44.748;37.600;2024-02-04T11:45:07;9.09;85.81
76577;DHT22;65441;44.748;37.600;2024-02-04T11:47:37;9.11;85.10
76577;DHT22;65441;44.748;37.600;2024-02-04T11:50:06;9.10;85.67
76577;DHT22;65441;44.748;37.600;2024-02-04T11:52:36;9.11;86.16
76577;DHT22;65441;44.748;37.600;2024-02-04T11:55:06;9.08;86.17
76577;DHT22;65441;44.748;37.600;2024-02-04T11:57:34;9.10;85.36
76577;DHT22;65441;44.748;37.600;2024-02-04T12:00:04;9.10;83.71
76577;DHT22;65441;44.748;37.600;2024-02-04T12:02:37;9.15;84.12
76577;DHT22;65441;44.748;37.600;2024-02-04T12:05:05;9.14;84.60
76577;DHT22;65441;44.748;37.600;2024-02-04T12:07:35;9.07;85.27
76577;DHT22;65441;44.748;37.600;2024-02-04T12:10:06;9.10;86.45
76577;DHT22;65441;44.748;37.600;2024-02-04T12:12:34;9.05;86.54
76577;DHT22;65441;44.748;37.600;2024-02-04T12:15:04;8.98;85.99
76577;DHT22;65441;44.748;37.600;2024-02-04T12:17:32;9.01;86.63
76577;DHT22;65441;44.748;37.600;2024-02-04T12:20:00;8.98;86.73
76577;DHT22;65441;44.748;37.600;2024-02-04T12:22:31;9.00;87.10
76577;DHT22;65441;44.748;37.600;2024-02-04T12:25:02;8.98;86.13
76577;DHT22;65441;44.748;37.600;2024-02-04T12:27:31;8.98;86.46
76577;DHT22;65441;44.748;37.600;2024-02-04T12:29:59;9.02;86.61
76577;DHT22;65441;44.748;37.600;2024-02-04T12:32:28;9.02;86.99
76577;DHT22;65441;44.748;37.600;2024-02-04T12:34:56;9.05;86.67
76577;DHT22;65441;44.748;37.600;2024-02-04T12:37:31;9.05;86.78
76577;DHT22;65441;44.748;37.600;2024-02-04T12:40:02;9.05;87.03
76577;DHT22;65441;44.748;37.600;2024-02-04T12:42:33;9.07;86.96
76577;DHT22;65441;44.748;37.600;2024-02-04T12:45:02;9.07;86.93
76577;DHT22;65441;44.748;37.600;2024-02-04T12:47:30;9.05;87.03
76577;DHT22;65441;44.748;37.600;2024-02-04T12:50:00;9.07;87.12
76577;DHT22;65441;44.748;37.600;2024-02-04T12:52:29;9.09;87.09
76577;DHT22;65441;44.748;37.600;2024-02-04T12:55:02;9.11;86.79
76577;DHT22;65441;44.748;37.600;2024-02-04T12:57:31;9.11;86.74
76577;DHT22;65441;44.748;37.600;2024-02-04T13:00:04;9.12;86.84
76577;DHT22;65441;44.748;37.600;2024-02-04T13:02:35;9.15;86.22
76577;DHT22;65441;44.748;37.600;2024-02-04T13:05:07;9.19;86.18
76577;DHT22;65441;44.748;37.600;2024-02-04T13:07:35;9.20;86.26
76577;DHT22;65441;44.748;37.600;2024-02-04T13:10:06;9.22;86.75
76577;DHT22;65441;44.748;37.600;2024-02-04T13:12:34;9.20;86.68
76577;DHT22;65441;44.748;37.600;2024-02-04T13:15:06;9.20;86.34
76577;DHT22;65441;44.748;37.600;2024-02-04T13:17:34;9.19;86.60
76577;DHT22;65441;44.748;37.600;2024-02-04T13:20:03;9.18;85.90
76577;DHT22;65441;44.748;37.600;2024-02-04T13:22:31;9.17;86.19
76577;DHT22;65441;44.748;37.600;2024-02-04T13:24:59;9.20;86.51
76577;DHT22;65441;44.748;37.600;2024-02-04T13:27:29;9.25;85.93
76577;DHT22;65441;44.748;37.600;2024-02-04T13:29:57;9.22;85.82
76577;DHT22;65441;44.748;37.600;2024-02-04T13:32:26;9.22;86.27
76577;DHT22;65441;44.748;37.600;2024-02-04T13:34:54;9.20;86.17
76577;DHT22;65441;44.748;37.600;2024-02-04T13:37:22;9.17;86.07
76577;DHT22;65441;44.748;37.600;2024-02-04T13:39:50;9.15;86.48
76577;DHT22;65441;44.748;37.600;2024-02-04T13:42:18;9.16;86.24
76577;DHT22;65441;44.748;37.600;2024-02-04T13:44:49;9.18;86.87
76577;DHT22;65441;44.748;37.600;2024-02-04T13:47:17;9.19;86.55
76577;DHT22;65441;44.748;37.600;2024-02-04T13:49:45;9.15;85.55
76577;DHT22;65441;44.748;37.600;2024-02-04T13:52:14;9.16;85.58
76577;DHT22;65441;44.748;37.600;2024-02-04T13:54:42;9.21;85.46
76577;DHT22;65441;44.748;37.600;2024-02-04T13:57:10;9.19;84.52
76577;DHT22;65441;44.748;37.600;2024-02-04T13:59:38;9.21;84.66
76577;DHT22;65441;44.748;37.600;2024-02-04T14:02:09;9.23;85.56
76577;DHT22;65441;44.748;37.600;2024-02-04T14:04:38;9.25;85.74
76577;DHT22;65441;44.748;37.600;2024-02-04T14:07:06;9.23;85.29
76577;DHT22;65441;44.748;37.600;2024-02-04T14:09:34;9.21;85.29
76577;DHT22;65441;44.748;37.600;2024-02-04T14:12:03;9.20;85.33
76577;DHT22;65441;44.748;37.600;2024-02-04T14:14:31;9.20;85.44
76577;DHT22;65441;44.748;37.600;2024-02-04T14:17:00;9.18;85.58
76577;DHT22;65441;44.748;37.600;2024-02-04T14:19:29;9.15;84.93
76577;DHT22;65441;44.748;37.600;2024-02-04T14:21:57;9.19;84.78
76577;DHT22;65441;44.748;37.600;2024-02-04T14:24:26;9.21;84.73
76577;DHT22;65441;44.748;37.600;2024-02-04T14:26:57;9.22;85.36
76577;DHT22;65441;44.748;37.600;2024-02-04T14:29:26;9.19;85.39
76577;DHT22;65441;44.748;37.600;2024-02-04T14:31:59;9.18;85.00
76577;DHT22;65441;44.748;37.600;2024-02-04T14:34:32;9.20;85.70
76577;DHT22;65441;44.748;37.600;2024-02-04T14:37:00;9.19;85.53
76577;DHT22;65441;44.748;37.600;2024-02-04T14:39:28;9.18;85.68
76577;DHT22;65441;44.748;37.600;2024-02-04T14:41:57;9.18;84.81
76577;DHT22;65441;44.748;37.600;2024-02-04T14:44:26;9.20;85.29
76577;DHT22;65441;44.748;37.600;2024-02-04T14:46:54;9.20;84.89
76577;DHT22;65441;44.748;37.600;2024-02-04T14:49:22;9.23;85.13
76577;DHT22;65441;44.748;37.600;2024-02-04T14:51:53;9.24;84.64
76577;DHT22;65441;44.748;37.600;2024-02-04T14:54:24;9.24;84.87
76577;DHT22;65441;44.748;37.600;2024-02-04T14:56:55;9.24;85.19
76577;DHT22;65441;44.748;37.600;2024-02-04T14:59:23;9.25;84.97
76577;DHT22;65441;44.748;37.600;2024-02-04T15:01:51;9.20;84.81
76577;DHT22;65441;44.748;37.600;2024-02-04T15:04:19;9.20;85.38
76577;DHT22;65441;44.748;37.600;2024-02-04T15:06:47;9.20;85.40
76577;DHT22;65441;44.748;37.600;2024-02-04T15:09:17;9.18;86.00
76577;DHT22;65441;44.748;37.600;2024-02-04T15:11:46;9.17;85.60
76577;DHT22;65441;44.748;37.600;2024-02-04T15:14:17;9.16;85.63
76577;DHT22;65441;44.748;37.600;2024-02-04T15:16:46;9.16;85.07
76577;DHT22;65441;44.748;37.600;2024-02-04T15:19:15;9.16;85.41
76577;DHT22;65441;44.748;37.600;2024-02-04T15:21:44;9.15;85.48
76577;DHT22;65441;44.748;37.600;2024-02-04T15:24:13;9.17;84.81
76577;DHT22;65441;44.748;37.600;2024-02-04T15:26:43;9.17;84.55
76577;DHT22;65441;44.748;37.600;2024-02-04T15:29:13;9.19;84.71
76577;DHT22;65441;44.748;37.600;2024-02-04T15:31:43;9.19;84.50
76577;DHT22;65441;44.748;37.600;2024-02-04T15:34:13;9.20;85.38
76577;DHT22;65441;44.748;37.600;2024-02-04T15:36:45;9.21;85.72
76577;DHT22;65441;44.748;37.600;2024-02-04T15:39:14;9.21;85.88
76577;DHT22;65441;44.748;37.600;2024-02-04T15:41:45;9.21;84.65